Time;durP1;ratioP1;P1;durP2;ratioP2;P2;SDS_P1;SDS_P2;PMS_P1;PMS_P2;Temp;Humidity;BMP_temperature;BMP_pressure;BME280_temperature;BME280_humidity;BME280_pressure;Samples;Min_cycle;Max_cycle;Signal;HPM_P1;HPM_P2
2022/11/20 00:00:44;;;;;;;;;;;21.10;92.10;;;;;;4918494;29;19928;-82
2022/11/20 00:03:13;;;;;;;;;;;22.40;93.40;;;;;;4920198;29;20047;-82
2022/11/20 00:05:39;;;;;;;;;;;21.70;92.70;;;;;;4939765;29;19926;-82
2022/11/20 00:08:06;;;;;;;;;;;21.00;92.40;;;;;;4960894;29;20027;-82
2022/11/20 00:10:33;;;;;;;;;;;21.00;92.40;;;;;;4959674;29;20049;-82
2022/11/20 00:12:59;;;;;;;;;;;21.00;92.50;;;;;;4959116;29;19926;-82
2022/11/20 00:15:26;;;;;;;;;;;21.00;92.60;;;;;;4959958;29;19936;-82
2022/11/20 00:17:52;;;;;;;;;;;21.00;92.80;;;;;;4959170;29;20013;-82
2022/11/20 00:20:21;;;;;;;;;;;20.80;92.60;;;;;;4958885;29;19927;-82
2022/11/20 00:22:47;;;;;;;;;;;21.00;92.80;;;;;;4959134;29;19933;-82
2022/11/20 00:25:14;;;;;;;;;;;21.00;92.90;;;;;;4960035;29;20038;-82
2022/11/20 00:27:40;;;;;;;;;;;21.00;92.90;;;;;;4960075;29;19933;-82
2022/11/20 00:30:08;;;;;;;;;;;20.90;93.00;;;;;;4960105;29;19933;-82
2022/11/20 00:32:34;;;;;;;;;;;21.00;93.00;;;;;;4959952;29;20017;-82
2022/11/20 00:35:01;;;;;;;;;;;20.90;93.00;;;;;;4959120;29;20394;-82
2022/11/20 00:37:29;;;;;;;;;;;20.90;93.00;;;;;;4961218;29;20009;-82
2022/11/20 00:39:56;;;;;;;;;;;21.00;93.10;;;;;;4960915;29;19997;-82
2022/11/20 00:42:32;;;;;;;;;;;20.10;92.70;;;;;;4959904;29;20391;-82
2022/11/20 00:45:02;;;;;;;;;;;20.90;93.20;;;;;;4960548;29;19934;-82
2022/11/20 00:47:29;;;;;;;;;;;20.30;92.90;;;;;;4960348;29;20017;-82
2022/11/20 00:49:56;;;;;;;;;;;21.10;93.30;;;;;;4961579;29;19930;-82
2022/11/20 00:52:22;;;;;;;;;;;20.20;93.80;;;;;;4961237;29;19926;-82
2022/11/20 00:54:50;;;;;;;;;;;20.80;93.80;;;;;;4960474;29;19966;-82
2022/11/20 00:57:17;;;;;;;;;;;19.50;92.70;;;;;;4961576;29;20048;-82
2022/11/20 00:59:44;;;;;;;;;;;20.90;93.50;;;;;;4960743;29;19933;-82
2022/11/20 01:02:10;;;;;;;;;;;22.40;94.20;;;;;;4960914;29;20398;-82
2022/11/20 01:04:37;;;;;;;;;;;20.90;93.50;;;;;;4960912;29;19927;-82
2022/11/20 01:07:04;;;;;;;;;;;20.40;93.80;;;;;;4960641;29;20496;-82
2022/11/20 01:09:30;;;;;;;;;;;21.30;94.10;;;;;;4960565;29;20017;-82
2022/11/20 01:11:58;;;;;;;;;;;20.90;93.80;;;;;;4960702;28;20397;-79
2022/11/20 01:14:25;;;;;;;;;;;21.00;94.10;;;;;;4959914;29;19934;-82
2022/11/20 01:16:55;;;;;;;;;;;20.90;93.90;;;;;;4961055;29;19950;-82
2022/11/20 01:19:22;;;;;;;;;;;20.90;93.90;;;;;;4960896;29;19926;-82
2022/11/20 01:21:50;;;;;;;;;;;20.90;94.00;;;;;;4961757;29;19934;-82
2022/11/20 01:24:19;;;;;;;;;;;20.80;93.90;;;;;;4960761;29;19938;-82
2022/11/20 01:26:50;;;;;;;;;;;20.90;94.50;;;;;;4960899;29;19937;-82
2022/11/20 01:29:20;;;;;;;;;;;21.00;94.60;;;;;;4961341;29;19927;-82
2022/11/20 01:31:47;;;;;;;;;;;20.90;94.10;;;;;;4961018;29;19938;-81
2022/11/20 01:34:15;;;;;;;;;;;20.90;95.30;;;;;;4960894;29;20005;-82
2022/11/20 01:36:42;;;;;;;;;;;21.30;94.40;;;;;;4961029;29;20409;-82
2022/11/20 01:39:15;;;;;;;;;;;22.40;94.90;;;;;;4961125;29;20020;-82
2022/11/20 01:44:41;;;;;;;;;;;21.20;94.40;;;;;;4960500;29;19929;-81
2022/11/20 01:47:12;;;;;;;;;;;20.90;94.00;;;;;;4961012;29;19927;-81
2022/11/20 01:49:42;;;;;;;;;;;20.90;94.00;;;;;;4960649;29;19990;-81
2022/11/20 01:52:13;;;;;;;;;;;20.90;94.00;;;;;;4961004;29;19926;-80
2022/11/20 01:57:46;;;;;;;;;;;20.80;93.90;;;;;;4961086;29;19927;-81
2022/11/20 02:00:14;;;;;;;;;;;21.00;94.40;;;;;;4961914;29;19926;-81
2022/11/20 02:02:44;;;;;;;;;;;20.90;94.10;;;;;;4959490;29;20437;-82
2022/11/20 02:05:15;;;;;;;;;;;21.40;94.20;;;;;;4959577;29;19933;-82
2022/11/20 02:07:43;;;;;;;;;;;20.80;94.00;;;;;;4959640;29;19950;-82
2022/11/20 02:10:10;;;;;;;;;;;20.80;94.10;;;;;;4958126;29;20019;-82
2022/11/20 02:15:20;;;;;;;;;;;21.00;94.40;;;;;;4958760;29;20294;-81
2022/11/20 02:17:48;;;;;;;;;;;20.80;94.40;;;;;;4957879;29;19953;-81
2022/11/20 02:20:15;;;;;;;;;;;20.90;94.50;;;;;;4958528;29;20414;-81
2022/11/20 02:22:47;;;;;;;;;;;20.90;94.60;;;;;;4957243;29;19934;-80
2022/11/20 02:25:15;;;;;;;;;;;21.70;95.10;;;;;;4959814;28;19931;-80
2022/11/20 02:27:42;;;;;;;;;;;20.90;94.70;;;;;;4958090;29;19934;-80
2022/11/20 02:30:10;;;;;;;;;;;20.90;95.00;;;;;;4957772;29;20014;-80
2022/11/20 02:32:39;;;;;;;;;;;20.90;94.80;;;;;;4958232;29;19946;-80
2022/11/20 02:35:10;;;;;;;;;;;20.90;94.90;;;;;;4959311;29;20386;-80
2022/11/20 02:37:41;;;;;;;;;;;20.90;94.80;;;;;;4960327;29;19930;-80
2022/11/20 02:40:08;;;;;;;;;;;20.90;94.90;;;;;;4959681;29;20470;-80
2022/11/20 02:42:37;;;;;;;;;;;20.90;95.20;;;;;;4958544;29;19930;-80
2022/11/20 02:45:06;;;;;;;;;;;20.90;94.90;;;;;;4959258;29;19926;-80
2022/11/20 02:47:33;;;;;;;;;;;20.90;95.30;;;;;;4960153;29;19927;-80
2022/11/20 02:50:00;;;;;;;;;;;21.30;95.40;;;;;;4958953;29;19954;-80
2022/11/20 02:52:27;;;;;;;;;;;20.90;95.30;;;;;;4957818;29;20025;-80
2022/11/20 02:54:53;;;;;;;;;;;20.90;94.90;;;;;;4957845;29;19933;-80
2022/11/20 06:24:30;;;;;;;;;;;20.80;96.60;;;;;;5379199;23;19927;-80
2022/11/20 06:26:56;;;;;;;;;;;20.80;96.70;;;;;;4980084;28;19930;-80
2022/11/20 06:29:23;;;;;;;;;;;20.80;96.80;;;;;;4979945;28;19933;-80
2022/11/20 06:31:49;;;;;;;;;;;20.80;96.80;;;;;;4980293;28;19926;-80
2022/11/20 06:34:16;;;;;;;;;;;20.80;97.00;;;;;;4979784;28;19930;-80
2022/11/20 06:36:43;;;;;;;;;;;20.80;97.10;;;;;;4980054;28;19926;-80
2022/11/20 06:39:09;;;;;;;;;;;20.90;97.20;;;;;;4980374;28;20397;-80
2022/11/20 06:41:37;;;;;;;;;;;20.90;97.30;;;;;;4979624;28;19945;-80
2022/11/20 06:44:04;;;;;;;;;;;20.90;97.40;;;;;;4979615;28;19927;-80
2022/11/20 06:46:31;;;;;;;;;;;20.90;97.40;;;;;;4979775;28;19926;-80
2022/11/20 06:48:58;;;;;;;;;;;20.80;97.40;;;;;;4980115;28;19926;-80
2022/11/20 06:51:24;;;;;;;;;;;20.90;97.50;;;;;;4979371;28;20377;-80
2022/11/20 06:53:51;;;;;;;;;;;20.90;97.50;;;;;;4979472;28;20333;-80
2022/11/20 06:56:17;;;;;;;;;;;20.90;97.50;;;;;;4980062;28;20285;-80
2022/11/20 06:58:45;;;;;;;;;;;20.90;97.50;;;;;;4980073;28;19934;-80
2022/11/20 07:01:13;;;;;;;;;;;20.90;97.50;;;;;;4980450;28;19934;-81
2022/11/20 07:03:40;;;;;;;;;;;20.90;97.50;;;;;;4980960;28;20293;-80
2022/11/20 07:06:07;;;;;;;;;;;20.90;97.50;;;;;;4979780;28;19926;-80
2022/11/20 07:08:34;;;;;;;;;;;20.90;97.50;;;;;;4979758;28;19926;-80
2022/11/20 07:11:01;;;;;;;;;;;20.90;97.50;;;;;;4979661;28;19926;-80
2022/11/20 07:13:28;;;;;;;;;;;20.80;97.50;;;;;;4979221;28;19947;-80
2022/11/20 07:15:59;;;;;;;;;;;20.90;97.50;;;;;;4979673;28;19933;-80
2022/11/20 07:18:26;;;;;;;;;;;20.80;97.50;;;;;;4979539;28;19973;-80
2022/11/20 07:20:53;;;;;;;;;;;20.80;97.50;;;;;;4979319;28;20016;-80
2022/11/20 07:23:19;;;;;;;;;;;20.80;97.50;;;;;;4979175;28;19933;-80
2022/11/20 07:25:46;;;;;;;;;;;20.80;97.50;;;;;;4980181;28;19934;-80
2022/11/20 07:28:13;;;;;;;;;;;20.80;97.50;;;;;;4978840;28;20388;-80
2022/11/20 07:30:40;;;;;;;;;;;20.80;97.50;;;;;;4979177;28;20382;-80
2022/11/20 07:33:08;;;;;;;;;;;20.70;97.50;;;;;;4979194;28;19930;-80
2022/11/20 07:35:35;;;;;;;;;;;20.80;97.60;;;;;;4979338;28;19926;-80
2022/11/20 07:38:02;;;;;;;;;;;20.80;97.80;;;;;;4979277;28;19930;-79
2022/11/20 07:40:28;;;;;;;;;;;20.80;98.00;;;;;;4979582;28;19933;-79
2022/11/20 07:42:55;;;;;;;;;;;20.80;98.10;;;;;;4979007;28;19933;-80
2022/11/20 07:45:23;;;;;;;;;;;20.90;98.20;;;;;;4979452;28;20023;-80
2022/11/20 07:47:49;;;;;;;;;;;20.90;98.20;;;;;;4979576;28;19933;-80
2022/11/20 07:50:18;;;;;;;;;;;20.90;98.20;;;;;;4980746;28;19937;-81
2022/11/20 07:52:44;;;;;;;;;;;20.90;98.30;;;;;;4980090;28;19962;-81
2022/11/20 07:55:11;;;;;;;;;;;20.90;98.40;;;;;;4980102;28;20034;-80
2022/11/20 07:57:38;;;;;;;;;;;20.90;98.40;;;;;;4979112;28;19933;-80
2022/11/20 08:00:06;;;;;;;;;;;21.00;98.50;;;;;;4979011;28;20385;-80
2022/11/20 08:02:33;;;;;;;;;;;20.90;98.50;;;;;;4978476;28;20386;-80
2022/11/20 08:05:00;;;;;;;;;;;21.00;98.60;;;;;;4978384;28;20294;-80
2022/11/20 08:07:27;;;;;;;;;;;20.90;98.50;;;;;;4978202;28;19936;-79
2022/11/20 08:09:54;;;;;;;;;;;20.90;98.60;;;;;;4976081;28;20390;-79
2022/11/20 08:15:06;;;;;;;;;;;20.90;98.60;;;;;;4977296;28;19929;-79
2022/11/20 08:17:33;;;;;;;;;;;20.90;98.50;;;;;;4977542;28;19933;-78
2022/11/20 08:20:00;;;;;;;;;;;20.90;98.30;;;;;;4979357;28;19926;-79
2022/11/20 08:22:27;;;;;;;;;;;20.70;98.10;;;;;;4982153;28;19930;-78
2022/11/20 08:24:54;;;;;;;;;;;20.80;98.10;;;;;;4981187;28;19926;-77
2022/11/20 08:27:21;;;;;;;;;;;20.80;98.10;;;;;;4979777;28;19926;-79
2022/11/20 08:29:47;;;;;;;;;;;20.90;98.00;;;;;;4979691;28;20312;-79
2022/11/20 08:32:14;;;;;;;;;;;20.70;97.70;;;;;;4979078;28;19933;-78
2022/11/20 08:34:40;;;;;;;;;;;20.70;97.70;;;;;;4978656;28;19926;-78
2022/11/20 08:37:07;;;;;;;;;;;20.70;97.60;;;;;;4978950;28;19937;-79
2022/11/20 08:39:35;;;;;;;;;;;20.70;97.50;;;;;;4980246;28;19926;-79
2022/11/20 08:42:01;;;;;;;;;;;20.70;97.40;;;;;;4978762;28;19926;-78
2022/11/20 08:44:28;;;;;;;;;;;20.70;97.30;;;;;;4980876;28;19941;-80
2022/11/20 08:46:54;;;;;;;;;;;20.80;97.30;;;;;;4981910;28;19926;-79
2022/11/20 08:49:22;;;;;;;;;;;20.80;97.20;;;;;;4980349;28;20286;-78
2022/11/20 08:51:51;;;;;;;;;;;20.80;97.10;;;;;;4980120;28;20020;-79
2022/11/20 08:54:19;;;;;;;;;;;20.80;97.10;;;;;;4979367;28;20278;-79
2022/11/20 08:56:47;;;;;;;;;;;20.80;97.10;;;;;;4981684;28;19937;-79
2022/11/20 08:59:14;;;;;;;;;;;20.90;97.20;;;;;;4979070;28;20382;-78
2022/11/20 09:01:40;;;;;;;;;;;20.90;97.10;;;;;;4978098;28;20263;-78
2022/11/20 09:04:07;;;;;;;;;;;20.90;97.00;;;;;;4977868;28;19937;-77
2022/11/20 09:06:33;;;;;;;;;;;20.90;96.90;;;;;;4977443;28;19926;-77
2022/11/20 09:09:00;;;;;;;;;;;20.90;96.80;;;;;;4978583;28;20021;-79
2022/11/20 09:11:27;;;;;;;;;;;20.90;96.70;;;;;;4977963;28;19937;-78
2022/11/20 09:13:54;;;;;;;;;;;20.90;96.50;;;;;;4977448;28;19926;-78
2022/11/20 09:16:21;;;;;;;;;;;20.90;96.40;;;;;;4977959;28;20301;-77
2022/11/20 09:18:50;;;;;;;;;;;21.00;96.40;;;;;;4977990;28;19926;-79
2022/11/20 09:21:17;;;;;;;;;;;20.90;96.20;;;;;;4977643;28;19937;-79
2022/11/20 09:23:43;;;;;;;;;;;20.90;96.00;;;;;;4978147;28;20277;-78
2022/11/20 09:26:11;;;;;;;;;;;20.90;95.90;;;;;;4977487;28;19926;-79
2022/11/20 09:28:38;;;;;;;;;;;20.90;95.70;;;;;;4977541;28;19933;-81
2022/11/20 09:31:07;;;;;;;;;;;20.90;95.70;;;;;;4978045;28;19926;-85
2022/11/20 09:33:34;;;;;;;;;;;20.80;95.60;;;;;;4977285;28;20397;-83
2022/11/20 09:36:00;;;;;;;;;;;20.80;95.50;;;;;;4977288;28;19933;-83
2022/11/20 09:38:27;;;;;;;;;;;20.30;95.10;;;;;;4976923;28;20529;-82
2022/11/20 09:40:57;;;;;;;;;;;21.10;95.30;;;;;;4978594;28;19926;-82
2022/11/20 09:43:28;;;;;;;;;;;21.40;95.40;;;;;;4978593;28;19926;-80
2022/11/20 09:46:02;;;;;;;;;;;21.20;95.20;;;;;;4977498;28;19948;-79
2022/11/20 09:48:36;;;;;;;;;;;20.30;94.60;;;;;;4977584;28;20406;-80
2022/11/20 09:51:08;;;;;;;;;;;20.90;94.80;;;;;;4978605;28;19926;-81
2022/11/20 09:53:41;;;;;;;;;;;21.00;94.80;;;;;;4977467;28;20366;-83
2022/11/20 09:56:09;;;;;;;;;;;20.70;94.60;;;;;;4977470;28;19937;-81
2022/11/20 09:58:39;;;;;;;;;;;20.90;94.60;;;;;;4977108;28;19933;-84
2022/11/20 10:01:10;;;;;;;;;;;20.90;94.50;;;;;;4977282;28;19933;-81
2022/11/20 10:03:41;;;;;;;;;;;20.90;94.80;;;;;;4976999;28;20449;-83
2022/11/20 10:06:11;;;;;;;;;;;21.10;94.50;;;;;;4977360;28;19937;-79
2022/11/20 10:08:42;;;;;;;;;;;20.90;94.30;;;;;;4977200;28;19929;-83
2022/11/20 10:11:13;;;;;;;;;;;21.00;94.40;;;;;;4977188;28;19926;-80
2022/11/20 10:13:46;;;;;;;;;;;21.10;94.30;;;;;;4977330;28;19926;-81
2022/11/20 10:16:19;;;;;;;;;;;21.00;94.20;;;;;;4977465;28;20301;-82
2022/11/20 10:18:55;;;;;;;;;;;21.20;94.30;;;;;;4977478;28;19926;-82
2022/11/20 10:21:27;;;;;;;;;;;21.00;94.10;;;;;;4978424;28;19930;-82
2022/11/20 10:24:00;;;;;;;;;;;21.00;94.10;;;;;;4977353;28;19926;-80
2022/11/20 10:26:31;;;;;;;;;;;21.00;94.00;;;;;;4977011;28;19933;-81
2022/11/20 10:29:04;;;;;;;;;;;21.00;94.00;;;;;;4977177;28;19976;-84
2022/11/20 10:31:32;;;;;;;;;;;21.00;94.00;;;;;;4976868;28;19926;-80
2022/11/20 10:34:04;;;;;;;;;;;20.80;93.80;;;;;;4977314;28;19930;-81
2022/11/20 10:36:34;;;;;;;;;;;20.90;93.80;;;;;;4977139;28;19933;-84
2022/11/20 10:39:04;;;;;;;;;;;21.00;93.80;;;;;;4976551;28;19926;-84
2022/11/20 10:41:35;;;;;;;;;;;21.20;93.90;;;;;;4976641;28;19930;-82
2022/11/20 10:44:04;;;;;;;;;;;21.00;93.80;;;;;;4977099;28;19926;-83
2022/11/20 10:46:37;;;;;;;;;;;20.90;93.60;;;;;;4976415;28;19926;-82
2022/11/20 10:49:12;;;;;;;;;;;20.90;93.60;;;;;;4976623;28;19930;-82
2022/11/20 10:51:41;;;;;;;;;;;20.70;93.50;;;;;;4977742;28;19930;-82
2022/11/20 10:54:13;;;;;;;;;;;20.90;93.60;;;;;;4978973;28;19930;-82
2022/11/20 10:56:41;;;;;;;;;;;20.90;93.60;;;;;;4979536;28;19934;-80
2022/11/20 10:59:25;;;;;;;;;;;20.90;93.60;;;;;;4978060;28;20342;-79
2022/11/20 11:01:52;;;;;;;;;;;20.90;93.60;;;;;;4977407;28;20374;-80
2022/11/20 11:04:27;;;;;;;;;;;21.00;93.70;;;;;;4976505;28;20413;-79
2022/11/20 11:06:55;;;;;;;;;;;20.90;93.60;;;;;;4978256;28;19933;-79
2022/11/20 11:09:33;;;;;;;;;;;21.00;93.60;;;;;;4977157;28;19926;-80
2022/11/20 11:12:00;;;;;;;;;;;20.90;93.50;;;;;;4976728;28;19930;-79
2022/11/20 11:14:26;;;;;;;;;;;21.00;93.50;;;;;;4976846;28;19926;-80
2022/11/20 11:16:54;;;;;;;;;;;20.90;93.30;;;;;;4976744;28;19933;-79
2022/11/20 11:19:22;;;;;;;;;;;20.90;93.30;;;;;;4976658;28;19926;-79
2022/11/20 11:21:50;;;;;;;;;;;20.90;93.30;;;;;;4977057;28;19933;-79
2022/11/20 11:24:21;;;;;;;;;;;20.90;93.30;;;;;;4978196;28;19926;-79
2022/11/20 11:26:52;;;;;;;;;;;20.90;93.30;;;;;;4977007;28;19988;-79
2022/11/20 11:29:19;;;;;;;;;;;20.90;93.30;;;;;;4979051;28;19927;-79
2022/11/20 11:31:46;;;;;;;;;;;21.00;93.30;;;;;;4976875;28;20367;-78
2022/11/20 11:34:13;;;;;;;;;;;21.00;93.50;;;;;;4977663;28;19926;-79
2022/11/20 11:36:42;;;;;;;;;;;21.00;93.70;;;;;;4978995;28;19926;-77
2022/11/20 11:39:14;;;;;;;;;;;21.10;93.90;;;;;;4975957;28;19937;-78
2022/11/20 11:41:41;;;;;;;;;;;21.10;94.20;;;;;;4975692;28;19933;-78
2022/11/20 11:47:00;;;;;;;;;;;21.20;94.60;;;;;;4976726;28;20382;-77
2022/11/20 11:49:26;;;;;;;;;;;21.30;94.90;;;;;;4975894;28;19926;-78
2022/11/20 11:52:01;;;;;;;;;;;21.20;95.00;;;;;;4976572;28;19926;-78
2022/11/20 11:54:31;;;;;;;;;;;21.20;95.10;;;;;;4977884;28;20394;-78
2022/11/20 11:56:59;;;;;;;;;;;21.20;95.30;;;;;;4976000;28;19949;-78
2022/11/20 11:59:27;;;;;;;;;;;21.20;95.40;;;;;;4979537;28;19926;-78
2022/11/20 12:01:56;;;;;;;;;;;21.20;95.50;;;;;;4982620;28;19926;-78
2022/11/20 12:04:28;;;;;;;;;;;21.20;95.60;;;;;;4984444;28;19926;-79
2022/11/20 12:07:02;;;;;;;;;;;21.20;95.80;;;;;;4984332;28;19933;-79
2022/11/20 12:09:35;;;;;;;;;;;21.20;96.20;;;;;;4982867;28;19927;-78
2022/11/20 12:12:06;;;;;;;;;;;21.20;95.90;;;;;;4986739;28;19926;-81
2022/11/20 12:14:35;;;;;;;;;;;21.20;95.90;;;;;;4987150;28;19933;-82
2022/11/20 12:17:02;;;;;;;;;;;21.20;95.90;;;;;;4987701;28;20399;-81
2022/11/20 12:19:33;;;;;;;;;;;21.20;95.90;;;;;;4986621;28;19930;-81
2022/11/20 12:22:07;;;;;;;;;;;21.20;96.00;;;;;;4987031;28;19933;-81
2022/11/20 12:24:44;;;;;;;;;;;21.20;96.20;;;;;;4986229;28;19926;-79
2022/11/20 12:27:39;;;;;;;;;;;21.20;95.90;;;;;;4985553;28;19926;-80
2022/11/20 12:30:09;;;;;;;;;;;21.20;95.90;;;;;;4988377;28;19953;-81
2022/11/20 12:33:06;;;;;;;;;;;21.10;95.80;;;;;;4985028;28;19926;-80
2022/11/20 12:35:43;;;;;;;;;;;21.10;95.80;;;;;;4985807;28;19926;-80
2022/11/20 12:38:24;;;;;;;;;;;21.10;95.80;;;;;;4985035;28;20370;-81
2022/11/20 12:40:57;;;;;;;;;;;21.10;95.80;;;;;;4987211;28;20053;-80
2022/11/20 12:46:30;;;;;;;;;;;21.10;95.80;;;;;;4989103;23;19937;-77
2022/11/20 12:49:04;;;;;;;;;;;21.10;95.80;;;;;;4978467;28;19926;-77
2022/11/20 12:51:38;;;;;;;;;;;21.10;95.80;;;;;;4981283;28;19969;-78
2022/11/20 12:54:12;;;;;;;;;;;21.10;95.80;;;;;;4981828;28;19926;-80
2022/11/20 12:56:46;;;;;;;;;;;21.10;95.80;;;;;;4982945;28;19926;-82
2022/11/20 12:59:22;;;;;;;;;;;21.10;95.80;;;;;;4984553;28;19926;-79
2022/11/20 13:01:51;;;;;;;;;;;21.10;95.80;;;;;;4985427;28;19990;-77
2022/11/20 13:04:24;;;;;;;;;;;21.10;95.80;;;;;;4983566;28;19981;-76
2022/11/20 13:06:51;;;;;;;;;;;21.10;95.80;;;;;;4982332;28;19933;-77
2022/11/20 13:09:22;;;;;;;;;;;21.10;95.80;;;;;;4983993;28;19926;-81
2022/11/20 13:11:51;;;;;;;;;;;21.10;95.80;;;;;;4985713;28;20408;-81
2022/11/20 13:14:25;;;;;;;;;;;21.10;95.80;;;;;;4984756;28;19932;-82
2022/11/20 13:16:55;;;;;;;;;;;21.10;95.80;;;;;;4984413;28;19966;-80
2022/11/20 13:19:22;;;;;;;;;;;21.10;95.80;;;;;;4985263;28;19933;-76
2022/11/20 13:21:50;;;;;;;;;;;21.10;95.80;;;;;;4982296;28;19981;-76
2022/11/20 13:24:29;;;;;;;;;;;21.20;95.90;;;;;;4982455;28;19949;-78
2022/11/20 13:27:16;;;;;;;;;;;21.20;95.90;;;;;;4982464;28;19989;-77
2022/11/20 13:29:45;;;;;;;;;;;21.20;95.90;;;;;;4982116;28;20370;-76
2022/11/20 13:32:15;;;;;;;;;;;21.20;95.90;;;;;;4982970;28;19926;-77
2022/11/20 13:34:52;;;;;;;;;;;21.20;95.90;;;;;;4982442;28;20017;-76
2022/11/20 13:37:26;;;;;;;;;;;21.20;95.90;;;;;;4982271;28;20358;-76
2022/11/20 13:40:06;;;;;;;;;;;21.20;95.90;;;;;;4982605;28;19932;-76
2022/11/20 13:42:36;;;;;;;;;;;21.20;95.90;;;;;;4982151;28;19977;-76
2022/11/20 13:45:04;;;;;;;;;;;21.20;95.90;;;;;;4983310;28;19926;-76
2022/11/20 13:47:31;;;;;;;;;;;21.20;95.80;;;;;;4977422;28;20366;-76
2022/11/20 13:49:59;;;;;;;;;;;21.20;95.70;;;;;;4977472;28;19927;-77
2022/11/20 13:52:36;;;;;;;;;;;21.20;95.60;;;;;;4979206;28;19926;-76
2022/11/20 13:55:11;;;;;;;;;;;21.20;95.60;;;;;;4980211;28;19932;-78
2022/11/20 13:57:52;;;;;;;;;;;21.20;95.50;;;;;;4978390;28;20463;-77
2022/11/20 14:00:19;;;;;;;;;;;21.20;95.40;;;;;;4977015;28;19933;-77
2022/11/20 14:02:52;;;;;;;;;;;21.10;95.30;;;;;;4978115;28;20401;-77
2022/11/20 14:05:21;;;;;;;;;;;21.10;95.20;;;;;;4980028;28;20005;-78
2022/11/20 14:07:49;;;;;;;;;;;21.10;95.20;;;;;;4980954;28;19933;-78
2022/11/20 14:10:24;;;;;;;;;;;21.10;95.10;;;;;;4981376;28;19926;-78
2022/11/20 14:12:51;;;;;;;;;;;21.10;95.10;;;;;;4980423;28;19926;-77
2022/11/20 14:15:38;;;;;;;;;;;21.10;95.10;;;;;;4981266;28;19926;-77
2022/11/20 14:18:12;;;;;;;;;;;21.10;95.10;;;;;;4979779;28;19930;-77
2022/11/20 14:20:39;;;;;;;;;;;21.10;95.00;;;;;;4979563;28;19930;-76
2022/11/20 14:23:10;;;;;;;;;;;21.10;95.10;;;;;;4980566;28;19926;-77
2022/11/20 14:25:43;;;;;;;;;;;21.10;95.10;;;;;;4981628;28;19930;-78
2022/11/20 14:28:12;;;;;;;;;;;21.20;95.30;;;;;;4976819;28;19981;-76
2022/11/20 14:30:43;;;;;;;;;;;21.20;95.30;;;;;;4976250;28;19926;-77
2022/11/20 14:33:11;;;;;;;;;;;21.20;95.40;;;;;;4976119;28;20413;-78
2022/11/20 14:35:44;;;;;;;;;;;21.20;95.50;;;;;;4976132;28;19933;-77
2022/11/20 14:38:12;;;;;;;;;;;21.20;95.50;;;;;;4975756;28;20397;-75
2022/11/20 14:40:42;;;;;;;;;;;21.20;95.60;;;;;;4975983;28;19926;-75
2022/11/20 14:43:17;;;;;;;;;;;21.20;95.60;;;;;;4979845;28;19986;-75
2022/11/20 14:45:44;;;;;;;;;;;21.20;95.60;;;;;;4975239;28;19933;-75
2022/11/20 14:48:11;;;;;;;;;;;21.20;95.60;;;;;;4975636;28;19933;-75
2022/11/20 14:50:39;;;;;;;;;;;21.20;95.50;;;;;;4976533;28;20381;-84
2022/11/20 14:53:05;;;;;;;;;;;21.20;95.40;;;;;;4979210;28;19926;-84
2022/11/20 14:55:33;;;;;;;;;;;21.20;95.30;;;;;;4978589;28;19926;-84
2022/11/20 14:58:02;;;;;;;;;;;21.20;95.20;;;;;;4978038;28;19930;-84
2022/11/20 15:00:29;;;;;;;;;;;20.40;94.80;;;;;;4978565;28;20002;-83
2022/11/20 15:02:56;;;;;;;;;;;21.10;95.00;;;;;;4978165;28;19926;-83
2022/11/20 15:05:24;;;;;;;;;;;21.10;94.90;;;;;;4978456;28;19926;-83
2022/11/20 15:07:51;;;;;;;;;;;21.10;94.80;;;;;;4978469;28;19926;-83
2022/11/20 15:10:22;;;;;;;;;;;21.10;94.70;;;;;;4978163;28;19933;-84
2022/11/20 15:12:50;;;;;;;;;;;21.10;94.60;;;;;;4978432;28;19934;-83
2022/11/20 15:15:21;;;;;;;;;;;21.00;94.50;;;;;;4977755;28;20456;-83
2022/11/20 15:17:48;;;;;;;;;;;21.00;94.40;;;;;;4978809;28;19926;-83
2022/11/20 15:20:15;;;;;;;;;;;21.00;94.30;;;;;;4978468;28;19930;-84
2022/11/20 15:22:42;;;;;;;;;;;21.00;94.20;;;;;;4979153;28;19926;-84
2022/11/20 15:25:15;;;;;;;;;;;21.00;94.10;;;;;;4978858;28;19927;-83
2022/11/20 15:27:42;;;;;;;;;;;21.00;94.10;;;;;;4978683;28;19933;-83
2022/11/20 15:30:16;;;;;;;;;;;20.90;94.00;;;;;;4978942;28;19933;-83
2022/11/20 15:32:44;;;;;;;;;;;20.90;93.90;;;;;;4978916;28;19926;-80
2022/11/20 15:35:11;;;;;;;;;;;20.90;93.90;;;;;;4980495;28;20020;-78
2022/11/20 15:37:38;;;;;;;;;;;20.90;93.80;;;;;;4980327;28;19926;-79
2022/11/20 15:40:05;;;;;;;;;;;20.90;93.90;;;;;;4982165;28;19950;-81
2022/11/20 15:42:32;;;;;;;;;;;20.90;93.90;;;;;;4982593;28;19927;-81
2022/11/20 15:44:59;;;;;;;;;;;20.90;93.80;;;;;;4982877;28;19933;-81
2022/11/20 15:47:27;;;;;;;;;;;20.90;93.80;;;;;;4984925;28;20293;-83
2022/11/20 15:49:55;;;;;;;;;;;20.90;93.70;;;;;;4983252;28;19933;-83
2022/11/20 15:52:22;;;;;;;;;;;20.90;93.70;;;;;;4981635;28;19933;-82
2022/11/20 15:54:48;;;;;;;;;;;20.90;93.60;;;;;;4980426;28;20389;-81
2022/11/20 15:57:15;;;;;;;;;;;20.80;93.50;;;;;;4981305;28;19937;-81
2022/11/20 15:59:42;;;;;;;;;;;20.90;93.60;;;;;;4981612;28;19926;-81
2022/11/20 16:02:09;;;;;;;;;;;20.80;93.60;;;;;;4982401;28;19932;-81
2022/11/20 16:04:36;;;;;;;;;;;20.80;93.60;;;;;;4982556;28;19926;-81
2022/11/20 16:07:04;;;;;;;;;;;20.80;93.60;;;;;;4982216;28;19926;-81
2022/11/20 16:09:31;;;;;;;;;;;20.80;93.60;;;;;;4982353;28;19926;-81
2022/11/20 16:11:59;;;;;;;;;;;20.80;93.60;;;;;;4983604;28;19926;-82
2022/11/20 16:17:09;;;;;;;;;;;20.80;93.50;;;;;;4982600;28;20302;-83
2022/11/20 16:19:36;;;;;;;;;;;20.80;93.50;;;;;;4981733;28;19926;-82
2022/11/20 16:22:04;;;;;;;;;;;20.80;93.50;;;;;;4981930;28;19934;-83
2022/11/20 16:24:31;;;;;;;;;;;20.80;93.40;;;;;;4982157;28;19926;-82
2022/11/20 16:26:57;;;;;;;;;;;20.80;93.30;;;;;;4982189;28;19933;-81
2022/11/20 16:29:24;;;;;;;;;;;20.80;93.20;;;;;;4982044;28;19933;-83
2022/11/20 16:31:51;;;;;;;;;;;20.70;93.20;;;;;;4982347;28;19926;-80
2022/11/20 16:34:18;;;;;;;;;;;20.80;93.20;;;;;;4982635;28;19926;-80
2022/11/20 16:36:45;;;;;;;;;;;20.80;93.20;;;;;;4981507;28;20013;-81
2022/11/20 16:39:14;;;;;;;;;;;20.80;93.20;;;;;;4982654;28;20013;-81
2022/11/20 16:41:41;;;;;;;;;;;20.80;93.20;;;;;;4981775;28;19934;-78
2022/11/20 16:44:09;;;;;;;;;;;20.80;93.30;;;;;;4981391;28;19973;-81
2022/11/20 16:46:36;;;;;;;;;;;20.80;93.20;;;;;;4980072;28;20421;-77
2022/11/20 16:49:03;;;;;;;;;;;20.80;93.20;;;;;;4978671;28;19926;-77
2022/11/20 16:51:31;;;;;;;;;;;20.80;93.20;;;;;;4978928;28;19932;-76
2022/11/20 16:54:01;;;;;;;;;;;20.80;93.20;;;;;;4977298;28;19926;-77
2022/11/20 16:56:31;;;;;;;;;;;20.80;93.20;;;;;;4976915;28;20141;-77
2022/11/20 16:58:59;;;;;;;;;;;20.70;93.20;;;;;;4978518;28;19926;-77
2022/11/20 17:01:27;;;;;;;;;;;20.80;93.20;;;;;;4977285;28;20404;-77
2022/11/20 17:03:54;;;;;;;;;;;20.80;93.20;;;;;;4977452;28;19973;-76
2022/11/20 17:06:22;;;;;;;;;;;20.80;93.20;;;;;;4977544;28;19926;-77
2022/11/20 17:08:49;;;;;;;;;;;20.80;93.20;;;;;;4977629;28;19926;-76
2022/11/20 17:11:16;;;;;;;;;;;20.80;93.20;;;;;;4977125;28;20382;-76
2022/11/20 17:13:44;;;;;;;;;;;20.80;93.20;;;;;;4978348;28;19926;-77
2022/11/20 17:16:11;;;;;;;;;;;20.80;93.20;;;;;;4979732;28;19934;-74
2022/11/20 17:18:38;;;;;;;;;;;20.80;93.20;;;;;;4979406;28;19926;-76
2022/11/20 17:21:05;;;;;;;;;;;20.80;93.40;;;;;;4981069;28;19927;-74
2022/11/20 17:23:32;;;;;;;;;;;20.80;93.40;;;;;;4981006;28;19930;-80
2022/11/20 17:26:03;;;;;;;;;;;20.80;93.50;;;;;;4982161;28;19926;-81
2022/11/20 17:28:30;;;;;;;;;;;20.80;93.50;;;;;;4981379;28;19930;-78
2022/11/20 17:31:00;;;;;;;;;;;20.80;93.50;;;;;;4981801;28;19985;-80
2022/11/20 17:33:27;;;;;;;;;;;20.80;93.50;;;;;;4981126;28;19930;-81
2022/11/20 17:35:54;;;;;;;;;;;20.80;93.50;;;;;;4979359;28;19926;-81
2022/11/20 17:38:20;;;;;;;;;;;20.90;93.60;;;;;;4978829;28;19934;-80
2022/11/20 17:40:47;;;;;;;;;;;20.80;93.50;;;;;;4978376;28;20416;-81
2022/11/20 17:43:13;;;;;;;;;;;20.80;93.50;;;;;;4978723;28;19926;-81
2022/11/20 17:45:40;;;;;;;;;;;20.80;93.50;;;;;;4977460;28;19926;-81
2022/11/20 17:48:08;;;;;;;;;;;20.80;93.50;;;;;;4977499;28;20037;-82
2022/11/20 17:50:34;;;;;;;;;;;20.80;93.50;;;;;;4977738;28;20275;-82
2022/11/20 17:53:01;;;;;;;;;;;20.80;93.40;;;;;;4977627;28;19926;-82
2022/11/20 17:57:51;;;;;;;;;;;20.80;93.40;;;;;;4977689;28;19934;-81
2022/11/20 17:58:13;;;;;;;;;;;20.80;93.40;;;;;;4977274;28;20005;-82
2022/11/20 18:00:40;;;;;;;;;;;20.80;93.30;;;;;;4977992;28;20353;-83
2022/11/20 18:03:08;;;;;;;;;;;20.80;93.30;;;;;;4977800;28;20413;-81
2022/11/20 18:05:35;;;;;;;;;;;20.90;93.30;;;;;;4977862;28;19933;-83
2022/11/20 18:08:01;;;;;;;;;;;20.80;93.20;;;;;;4977613;28;19926;-84
2022/11/20 18:10:29;;;;;;;;;;;20.70;93.20;;;;;;4977686;28;19933;-83
2022/11/20 18:12:55;;;;;;;;;;;20.70;93.20;;;;;;4978195;28;19933;-83